sensor_id;sensor_type;location;lat;lon;timestamp;P1;P2;P0
14880;PMS7003;7533;51.278;12.588;2022-08-03T00:03:35;9.20;9.20;6.20
14880;PMS7003;7533;51.278;12.588;2022-08-03T00:08:38;7.75;7.75;5.50
14880;PMS7003;7533;51.278;12.588;2022-08-03T00:13:41;9.40;7.60;5.80
14880;PMS7003;7533;51.278;12.588;2022-08-03T00:18:45;11.00;11.00;7.50
14880;PMS7003;7533;51.278;12.588;2022-08-03T00:23:48;10.50;10.00;7.75
14880;PMS7003;7533;51.278;12.588;2022-08-03T00:28:53;7.75;7.75;6.00
14880;PMS7003;7533;51.278;12.588;2022-08-03T00:33:57;10.60;9.40;7.00
14880;PMS7003;7533;51.278;12.588;2022-08-03T00:39:03;11.00;10.25;7.00
14880;PMS7003;7533;51.278;12.588;2022-08-03T00:44:06;10.50;10.50;7.50
14880;PMS7003;7533;51.278;12.588;2022-08-03T00:49:10;9.00;8.00;6.00
14880;PMS7003;7533;51.278;12.588;2022-08-03T00:54:13;8.50;8.25;6.00
14880;PMS7003;7533;51.278;12.588;2022-08-03T00:59:17;10.75;9.00;6.50
14880;PMS7003;7533;51.278;12.588;2022-08-03T01:04:21;9.25;9.25;6.50
14880;PMS7003;7533;51.278;12.588;2022-08-03T01:09:25;11.00;8.75;6.00
14880;PMS7003;7533;51.278;12.588;2022-08-03T01:14:39;11.00;10.00;7.25
14880;PMS7003;7533;51.278;12.588;2022-08-03T01:19:49;8.75;7.75;6.25
14880;PMS7003;7533;51.278;12.588;2022-08-03T01:25:00;8.75;8.50;6.25
14880;PMS7003;7533;51.278;12.588;2022-08-03T01:30:09;7.75;7.75;5.50
14880;PMS7003;7533;51.278;12.588;2022-08-03T01:35:15;12.50;8.00;6.00
14880;PMS7003;7533;51.278;12.588;2022-08-03T01:40:23;10.60;9.80;6.80
14880;PMS7003;7533;51.278;12.588;2022-08-03T01:45:30;9.75;9.75;8.00
14880;PMS7003;7533;51.278;12.588;2022-08-03T01:50:34;8.25;7.75;5.25
14880;PMS7003;7533;51.278;12.588;2022-08-03T01:55:38;9.25;9.25;7.00
14880;PMS7003;7533;51.278;12.588;2022-08-03T02:00:43;10.00;9.00;6.75
14880;PMS7003;7533;51.278;12.588;2022-08-03T02:05:49;10.75;10.75;8.00
14880;PMS7003;7533;51.278;12.588;2022-08-03T02:11:15;9.80;9.00;6.40
14880;PMS7003;7533;51.278;12.588;2022-08-03T02:16:19;8.25;8.25;6.00
14880;PMS7003;7533;51.278;12.588;2022-08-03T02:21:25;11.00;11.00;8.00
14880;PMS7003;7533;51.278;12.588;2022-08-03T02:26:50;9.60;9.60;7.40
14880;PMS7003;7533;51.278;12.588;2022-08-03T02:31:58;9.20;9.20;6.60
14880;PMS7003;7533;51.278;12.588;2022-08-03T02:37:04;9.60;9.60;6.80
14880;PMS7003;7533;51.278;12.588;2022-08-03T02:42:09;11.40;10.20;7.40
14880;PMS7003;7533;51.278;12.588;2022-08-03T02:47:17;10.40;9.00;7.00
14880;PMS7003;7533;51.278;12.588;2022-08-03T02:52:23;10.20;9.80;8.40
14880;PMS7003;7533;51.278;12.588;2022-08-03T02:57:28;9.00;9.00;6.50
14880;PMS7003;7533;51.278;12.588;2022-08-03T03:02:34;9.00;8.25;6.00
14880;PMS7003;7533;51.278;12.588;2022-08-03T03:07:38;10.25;9.00;6.50
14880;PMS7003;7533;51.278;12.588;2022-08-03T03:12:54;11.00;10.00;7.00
14880;PMS7003;7533;51.278;12.588;2022-08-03T03:17:59;13.60;13.20;8.00
14880;PMS7003;7533;51.278;12.588;2022-08-03T03:23:03;10.80;10.60;7.80
14880;PMS7003;7533;51.278;12.588;2022-08-03T03:28:08;11.25;10.00;7.00
14880;PMS7003;7533;51.278;12.588;2022-08-03T03:33:13;10.50;9.50;6.50
14880;PMS7003;7533;51.278;12.588;2022-08-03T03:38:16;9.25;8.75;6.75
14880;PMS7003;7533;51.278;12.588;2022-08-03T03:43:20;11.25;11.00;7.50
14880;PMS7003;7533;51.278;12.588;2022-08-03T03:48:26;12.80;9.60;7.40
14880;PMS7003;7533;51.278;12.588;2022-08-03T03:53:32;10.20;9.60;7.00
14880;PMS7003;7533;51.278;12.588;2022-08-03T03:58:35;10.40;10.40;7.40
14880;PMS7003;7533;51.278;12.588;2022-08-03T04:03:39;11.40;11.40;8.20
14880;PMS7003;7533;51.278;12.588;2022-08-03T04:08:42;12.25;11.25;8.00
14880;PMS7003;7533;51.278;12.588;2022-08-03T04:14:15;13.00;11.75;7.75
14880;PMS7003;7533;51.278;12.588;2022-08-03T04:19:23;10.80;10.20;8.00
14880;PMS7003;7533;51.278;12.588;2022-08-03T04:24:31;10.25;10.25;7.00
14880;PMS7003;7533;51.278;12.588;2022-08-03T04:29:36;12.20;11.00;7.40
14880;PMS7003;7533;51.278;12.588;2022-08-03T04:34:50;10.80;10.00;7.80
14880;PMS7003;7533;51.278;12.588;2022-08-03T04:39:53;11.75;11.75;9.00
14880;PMS7003;7533;51.278;12.588;2022-08-03T04:44:59;14.20;14.20;10.80
14880;PMS7003;7533;51.278;12.588;2022-08-03T04:50:07;19.20;15.80;11.80
14880;PMS7003;7533;51.278;12.588;2022-08-03T04:55:23;13.80;13.80;10.60
14880;PMS7003;7533;51.278;12.588;2022-08-03T05:00:27;11.20;11.20;7.60
14880;PMS7003;7533;51.278;12.588;2022-08-03T05:05:32;14.60;14.00;8.80
14880;PMS7003;7533;51.278;12.588;2022-08-03T05:10:51;13.60;11.60;8.00
14880;PMS7003;7533;51.278;12.588;2022-08-03T05:15:54;14.20;14.20;10.60
14880;PMS7003;7533;51.278;12.588;2022-08-03T05:20:58;16.60;15.20;11.20
14880;PMS7003;7533;51.278;12.588;2022-08-03T05:26:01;15.60;15.00;11.20
14880;PMS7003;7533;51.278;12.588;2022-08-03T05:31:04;21.40;19.80;13.20
14880;PMS7003;7533;51.278;12.588;2022-08-03T05:36:08;18.20;16.60;12.20
14880;PMS7003;7533;51.278;12.588;2022-08-03T05:41:11;29.80;27.00;18.60
14880;PMS7003;7533;51.278;12.588;2022-08-03T05:46:24;22.80;21.40;14.80
14880;PMS7003;7533;51.278;12.588;2022-08-03T05:51:28;18.80;16.60;12.00
14880;PMS7003;7533;51.278;12.588;2022-08-03T05:56:31;20.20;17.40;13.80
14880;PMS7003;7533;51.278;12.588;2022-08-03T06:01:34;18.60;15.00;12.00
14880;PMS7003;7533;51.278;12.588;2022-08-03T06:06:38;17.40;17.00;12.40
14880;PMS7003;7533;51.278;12.588;2022-08-03T06:11:42;19.40;17.40;12.80
14880;PMS7003;7533;51.278;12.588;2022-08-03T06:16:46;20.80;19.00;13.40
14880;PMS7003;7533;51.278;12.588;2022-08-03T06:21:50;18.80;18.40;12.60
14880;PMS7003;7533;51.278;12.588;2022-08-03T06:26:53;17.00;16.20;11.00
14880;PMS7003;7533;51.278;12.588;2022-08-03T06:31:56;14.80;14.80;10.80
14880;PMS7003;7533;51.278;12.588;2022-08-03T06:37:00;19.00;16.00;12.00
14880;PMS7003;7533;51.278;12.588;2022-08-03T06:42:03;17.20;15.80;11.00
14880;PMS7003;7533;51.278;12.588;2022-08-03T06:47:10;19.00;16.60;13.00
14880;PMS7003;7533;51.278;12.588;2022-08-03T06:52:14;17.00;15.80;11.80
14880;PMS7003;7533;51.278;12.588;2022-08-03T06:57:37;17.60;16.20;10.60
14880;PMS7003;7533;51.278;12.588;2022-08-03T07:02:40;14.00;13.80;9.40
14880;PMS7003;7533;51.278;12.588;2022-08-03T07:07:44;13.25;12.50;9.00
14880;PMS7003;7533;51.278;12.588;2022-08-03T07:12:48;16.20;13.60;9.00
14880;PMS7003;7533;51.278;12.588;2022-08-03T07:17:57;14.80;14.80;11.20
14880;PMS7003;7533;51.278;12.588;2022-08-03T07:23:01;14.20;12.40;9.60
14880;PMS7003;7533;51.278;12.588;2022-08-03T07:28:04;12.60;12.60;8.20
14880;PMS7003;7533;51.278;12.588;2022-08-03T07:33:07;13.80;13.80;10.00
14880;PMS7003;7533;51.278;12.588;2022-08-03T07:38:11;16.20;15.80;10.80
14880;PMS7003;7533;51.278;12.588;2022-08-03T07:43:14;13.00;13.00;10.00
14880;PMS7003;7533;51.278;12.588;2022-08-03T07:48:18;16.40;14.60;9.80
14880;PMS7003;7533;51.278;12.588;2022-08-03T07:53:22;13.20;12.80;8.60
14880;PMS7003;7533;51.278;12.588;2022-08-03T07:58:25;14.00;14.00;10.40
14880;PMS7003;7533;51.278;12.588;2022-08-03T08:03:27;12.00;11.00;8.60
14880;PMS7003;7533;51.278;12.588;2022-08-03T08:08:52;14.40;11.60;8.20
14880;PMS7003;7533;51.278;12.588;2022-08-03T08:13:55;14.20;13.40;10.00
14880;PMS7003;7533;51.278;12.588;2022-08-03T08:18:58;15.00;14.40;9.20
14880;PMS7003;7533;51.278;12.588;2022-08-03T08:24:03;11.20;11.20;8.20
14880;PMS7003;7533;51.278;12.588;2022-08-03T08:29:18;13.80;13.80;8.80
14880;PMS7003;7533;51.278;12.588;2022-08-03T08:34:23;13.00;12.40;8.60
14880;PMS7003;7533;51.278;12.588;2022-08-03T08:39:27;14.20;11.60;7.20
14880;PMS7003;7533;51.278;12.588;2022-08-03T08:44:30;11.80;10.20;8.00
14880;PMS7003;7533;51.278;12.588;2022-08-03T08:49:33;9.00;9.00;6.75
14880;PMS7003;7533;51.278;12.588;2022-08-03T08:54:40;12.20;12.20;7.00
14880;PMS7003;7533;51.278;12.588;2022-08-03T08:59:45;11.00;10.00;7.20
14880;PMS7003;7533;51.278;12.588;2022-08-03T09:04:51;14.75;12.75;9.00
14880;PMS7003;7533;51.278;12.588;2022-08-03T09:09:56;10.00;10.00;6.60
14880;PMS7003;7533;51.278;12.588;2022-08-03T09:15:22;10.25;8.00;5.75
14880;PMS7003;7533;51.278;12.588;2022-08-03T09:20:27;10.50;10.50;7.75
14880;PMS7003;7533;51.278;12.588;2022-08-03T09:25:33;10.50;9.50;7.75
14880;PMS7003;7533;51.278;12.588;2022-08-03T09:30:38;8.00;8.00;6.00
14880;PMS7003;7533;51.278;12.588;2022-08-03T09:35:43;9.75;8.50;6.50
14880;PMS7003;7533;51.278;12.588;2022-08-03T09:40:59;9.50;9.50;5.75
14880;PMS7003;7533;51.278;12.588;2022-08-03T09:46:02;10.00;9.50;6.75
14880;PMS7003;7533;51.278;12.588;2022-08-03T09:51:07;7.50;7.00;5.50
14880;PMS7003;7533;51.278;12.588;2022-08-03T09:56:41;9.00;9.00;6.00
14880;PMS7003;7533;51.278;12.588;2022-08-03T10:01:45;11.25;8.75;7.00
14880;PMS7003;7533;51.278;12.588;2022-08-03T10:07:02;8.00;8.00;6.50
14880;PMS7003;7533;51.278;12.588;2022-08-03T10:12:08;9.75;7.25;4.25
14880;PMS7003;7533;51.278;12.588;2022-08-03T10:17:12;10.50;10.00;5.50
14880;PMS7003;7533;51.278;12.588;2022-08-03T10:22:17;8.25;8.25;6.25
14880;PMS7003;7533;51.278;12.588;2022-08-03T10:27:22;10.50;8.75;6.50
14880;PMS7003;7533;51.278;12.588;2022-08-03T10:32:27;8.00;8.00;6.00
14880;PMS7003;7533;51.278;12.588;2022-08-03T10:37:33;9.00;9.00;6.00
14880;PMS7003;7533;51.278;12.588;2022-08-03T10:42:58;12.00;10.00;7.25
14880;PMS7003;7533;51.278;12.588;2022-08-03T10:48:09;8.00;8.00;5.00
14880;PMS7003;7533;51.278;12.588;2022-08-03T10:53:12;9.25;9.00;5.75
14880;PMS7003;7533;51.278;12.588;2022-08-03T11:04:14;7.25;7.25;5.00
14880;PMS7003;7533;51.278;12.588;2022-08-03T11:09:18;7.00;7.00;4.25
14880;PMS7003;7533;51.278;12.588;2022-08-03T11:14:22;9.25;8.00;5.75
14880;PMS7003;7533;51.278;12.588;2022-08-03T11:19:25;9.00;7.50;5.50
14880;PMS7003;7533;51.278;12.588;2022-08-03T11:24:59;8.25;7.00;5.00
14880;PMS7003;7533;51.278;12.588;2022-08-03T11:30:07;8.75;8.75;6.75
14880;PMS7003;7533;51.278;12.588;2022-08-03T11:35:12;6.50;6.50;5.50
14880;PMS7003;7533;51.278;12.588;2022-08-03T11:40:31;9.50;7.75;5.50
14880;PMS7003;7533;51.278;12.588;2022-08-03T11:45:37;9.25;7.75;5.75
14880;PMS7003;7533;51.278;12.588;2022-08-03T11:50:40;8.50;8.50;6.00
14880;PMS7003;7533;51.278;12.588;2022-08-03T11:55:46;7.00;7.00;3.00
14880;PMS7003;7533;51.278;12.588;2022-08-03T12:00:51;8.50;8.50;5.25
14880;PMS7003;7533;51.278;12.588;2022-08-03T12:05:54;7.25;7.25;6.00
14880;PMS7003;7533;51.278;12.588;2022-08-03T12:10:58;7.75;7.50;5.25
14880;PMS7003;7533;51.278;12.588;2022-08-03T12:16:04;9.00;8.75;6.00
14880;PMS7003;7533;51.278;12.588;2022-08-03T12:21:08;8.00;7.25;4.25
14880;PMS7003;7533;51.278;12.588;2022-08-03T12:26:12;8.00;6.75;5.75
14880;PMS7003;7533;51.278;12.588;2022-08-03T12:31:17;5.75;5.75;4.25
14880;PMS7003;7533;51.278;12.588;2022-08-03T12:36:20;8.25;8.00;4.75
14880;PMS7003;7533;51.278;12.588;2022-08-03T12:41:26;7.75;7.75;6.00
14880;PMS7003;7533;51.278;12.588;2022-08-03T12:46:33;6.50;6.50;4.75
14880;PMS7003;7533;51.278;12.588;2022-08-03T12:51:54;6.75;5.75;4.75
14880;PMS7003;7533;51.278;12.588;2022-08-03T12:56:59;5.25;5.25;4.75
14880;PMS7003;7533;51.278;12.588;2022-08-03T13:02:04;8.00;6.33;5.00
14880;PMS7003;7533;51.278;12.588;2022-08-03T13:07:10;9.00;8.00;6.00
14880;PMS7003;7533;51.278;12.588;2022-08-03T13:12:15;8.75;7.50;5.00
14880;PMS7003;7533;51.278;12.588;2022-08-03T13:17:22;6.00;6.00;3.50
14880;PMS7003;7533;51.278;12.588;2022-08-03T13:22:25;7.25;5.75;4.00
14880;PMS7003;7533;51.278;12.588;2022-08-03T13:27:29;6.00;5.75;3.50
14880;PMS7003;7533;51.278;12.588;2022-08-03T13:32:54;8.00;6.50;4.75
14880;PMS7003;7533;51.278;12.588;2022-08-03T13:37:59;4.75;4.75;4.00
14880;PMS7003;7533;51.278;12.588;2022-08-03T13:43:02;8.25;7.00;4.00
14880;PMS7003;7533;51.278;12.588;2022-08-03T13:48:06;6.00;6.00;4.00
14880;PMS7003;7533;51.278;12.588;2022-08-03T13:53:09;8.00;7.00;4.50
14880;PMS7003;7533;51.278;12.588;2022-08-03T13:58:12;5.75;5.00;3.50
14880;PMS7003;7533;51.278;12.588;2022-08-03T14:03:16;6.75;6.00;4.00
14880;PMS7003;7533;51.278;12.588;2022-08-03T14:08:19;6.00;5.00;3.00
14880;PMS7003;7533;51.278;12.588;2022-08-03T14:13:22;5.50;5.50;3.75
14880;PMS7003;7533;51.278;12.588;2022-08-03T14:18:26;8.25;6.50;5.00
14880;PMS7003;7533;51.278;12.588;2022-08-03T14:23:34;80.00;60.20;30.00
14880;PMS7003;7533;51.278;12.588;2022-08-03T14:28:39;55.60;40.60;20.80
14880;PMS7003;7533;51.278;12.588;2022-08-03T14:33:43;52.00;38.80;19.60
14880;PMS7003;7533;51.278;12.588;2022-08-03T14:38:46;44.60;30.60;16.00
14880;PMS7003;7533;51.278;12.588;2022-08-03T14:43:50;37.20;29.20;13.60
14880;PMS7003;7533;51.278;12.588;2022-08-03T14:49:03;33.40;24.20;12.40
14880;PMS7003;7533;51.278;12.588;2022-08-03T14:54:26;28.80;22.80;10.40
14880;PMS7003;7533;51.278;12.588;2022-08-03T14:59:31;27.00;18.60;8.80
14880;PMS7003;7533;51.278;12.588;2022-08-03T15:04:55;22.60;16.60;8.00
14880;PMS7003;7533;51.278;12.588;2022-08-03T15:09:58;21.80;16.60;10.00
14880;PMS7003;7533;51.278;12.588;2022-08-03T15:15:02;17.00;14.20;8.00
14880;PMS7003;7533;51.278;12.588;2022-08-03T15:20:08;18.50;13.75;7.75
14880;PMS7003;7533;51.278;12.588;2022-08-03T15:25:31;21.40;13.40;6.60
14880;PMS7003;7533;51.278;12.588;2022-08-03T15:30:54;16.80;12.80;7.00
14880;PMS7003;7533;51.278;12.588;2022-08-03T15:35:58;14.50;10.75;6.00
14880;PMS7003;7533;51.278;12.588;2022-08-03T15:41:01;13.25;10.50;6.00
14880;PMS7003;7533;51.278;12.588;2022-08-03T15:46:04;13.50;11.75;6.25
14880;PMS7003;7533;51.278;12.588;2022-08-03T15:51:28;16.25;11.75;5.50
14880;PMS7003;7533;51.278;12.588;2022-08-03T15:56:31;15.00;9.75;5.25
14880;PMS7003;7533;51.278;12.588;2022-08-03T16:01:34;13.00;10.25;5.25
14880;PMS7003;7533;51.278;12.588;2022-08-03T16:06:39;11.50;11.00;6.25
14880;PMS7003;7533;51.278;12.588;2022-08-03T16:11:41;14.80;11.80;6.00
14880;PMS7003;7533;51.278;12.588;2022-08-03T16:16:44;13.00;12.00;7.80
14880;PMS7003;7533;51.278;12.588;2022-08-03T16:21:48;19.00;14.60;7.80
14880;PMS7003;7533;51.278;12.588;2022-08-03T16:26:51;13.20;12.00;7.20
14880;PMS7003;7533;51.278;12.588;2022-08-03T16:31:54;14.40;11.00;6.20
14880;PMS7003;7533;51.278;12.588;2022-08-03T16:36:58;13.80;10.60;6.00
14880;PMS7003;7533;51.278;12.588;2022-08-03T16:42:21;11.25;9.50;4.75
14880;PMS7003;7533;51.278;12.588;2022-08-03T16:47:24;10.40;9.60;6.00
14880;PMS7003;7533;51.278;12.588;2022-08-03T16:52:28;10.75;9.00;6.25
14880;PMS7003;7533;51.278;12.588;2022-08-03T16:57:33;14.50;11.25;6.75
14880;PMS7003;7533;51.278;12.588;2022-08-03T17:02:56;11.75;9.75;6.25
14880;PMS7003;7533;51.278;12.588;2022-08-03T17:08:01;11.25;10.00;6.00
14880;PMS7003;7533;51.278;12.588;2022-08-03T17:13:13;11.50;11.00;6.50
14880;PMS7003;7533;51.278;12.588;2022-08-03T17:18:23;10.50;8.75;4.75
14880;PMS7003;7533;51.278;12.588;2022-08-03T17:23:35;10.25;10.25;6.25
14880;PMS7003;7533;51.278;12.588;2022-08-03T17:28:43;11.75;10.00;5.25
14880;PMS7003;7533;51.278;12.588;2022-08-03T17:33:52;8.00;6.75;5.00
14880;PMS7003;7533;51.278;12.588;2022-08-03T17:38:58;8.50;8.50;5.50
14880;PMS7003;7533;51.278;12.588;2022-08-03T17:44:02;8.75;7.50;5.50
14880;PMS7003;7533;51.278;12.588;2022-08-03T17:49:18;8.50;8.00;5.25
14880;PMS7003;7533;51.278;12.588;2022-08-03T17:54:28;8.50;8.00;4.50
14880;PMS7003;7533;51.278;12.588;2022-08-03T17:59:59;8.75;8.75;5.00
14880;PMS7003;7533;51.278;12.588;2022-08-03T18:05:27;8.00;7.00;4.00
14880;PMS7003;7533;51.278;12.588;2022-08-03T18:10:51;7.75;6.75;4.75
14880;PMS7003;7533;51.278;12.588;2022-08-03T18:16:04;7.75;6.25;3.25
14880;PMS7003;7533;51.278;12.588;2022-08-03T18:21:10;9.00;6.25;4.25
14880;PMS7003;7533;51.278;12.588;2022-08-03T18:26:19;7.50;7.50;4.50
14880;PMS7003;7533;51.278;12.588;2022-08-03T18:31:23;6.25;6.25;3.75
14880;PMS7003;7533;51.278;12.588;2022-08-03T18:36:47;10.00;6.50;3.25
14880;PMS7003;7533;51.278;12.588;2022-08-03T18:41:52;9.00;6.75;4.25
14880;PMS7003;7533;51.278;12.588;2022-08-03T18:47:02;7.00;7.00;4.00
14880;PMS7003;7533;51.278;12.588;2022-08-03T18:52:20;9.50;7.50;4.00
14880;PMS7003;7533;51.278;12.588;2022-08-03T18:57:31;6.75;6.50;4.00
14880;PMS7003;7533;51.278;12.588;2022-08-03T19:02:42;8.50;8.50;5.00
14880;PMS7003;7533;51.278;12.588;2022-08-03T19:07:53;9.00;6.50;3.75
14880;PMS7003;7533;51.278;12.588;2022-08-03T19:13:03;6.75;6.75;4.75
14880;PMS7003;7533;51.278;12.588;2022-08-03T19:18:14;4.75;4.75;3.75
14880;PMS7003;7533;51.278;12.588;2022-08-03T19:23:21;6.50;5.50;4.00
14880;PMS7003;7533;51.278;12.588;2022-08-03T19:28:26;7.00;5.25;3.75
14880;PMS7003;7533;51.278;12.588;2022-08-03T19:33:31;5.50;4.75;3.00
14880;PMS7003;7533;51.278;12.588;2022-08-03T19:38:56;7.75;7.75;4.75
14880;PMS7003;7533;51.278;12.588;2022-08-03T19:44:02;9.25;7.00;3.50
14880;PMS7003;7533;51.278;12.588;2022-08-03T19:49:09;6.25;6.25;4.00
14880;PMS7003;7533;51.278;12.588;2022-08-03T19:54:16;6.50;5.00;3.50
14880;PMS7003;7533;51.278;12.588;2022-08-03T19:59:31;5.75;5.00;3.25
14880;PMS7003;7533;51.278;12.588;2022-08-03T20:04:50;5.75;5.75;3.00
14880;PMS7003;7533;51.278;12.588;2022-08-03T20:09:53;8.50;7.00;4.00
14880;PMS7003;7533;51.278;12.588;2022-08-03T20:14:58;7.75;6.75;4.00
14880;PMS7003;7533;51.278;12.588;2022-08-03T20:20:02;7.00;4.50;3.25
14880;PMS7003;7533;51.278;12.588;2022-08-03T20:25:07;8.00;7.75;4.00
14880;PMS7003;7533;51.278;12.588;2022-08-03T20:30:17;8.75;7.00;4.25
14880;PMS7003;7533;51.278;12.588;2022-08-03T20:35:27;8.00;8.00;6.00
14880;PMS7003;7533;51.278;12.588;2022-08-03T20:40:31;9.40;8.40;6.00
14880;PMS7003;7533;51.278;12.588;2022-08-03T20:45:35;9.00;9.00;5.00
14880;PMS7003;7533;51.278;12.588;2022-08-03T20:50:59;7.25;6.75;3.50
14880;PMS7003;7533;51.278;12.588;2022-08-03T20:56:02;8.00;8.00;5.00
14880;PMS7003;7533;51.278;12.588;2022-08-03T21:01:09;6.75;6.50;4.75
14880;PMS7003;7533;51.278;12.588;2022-08-03T21:06:13;9.40;9.20;6.00
14880;PMS7003;7533;51.278;12.588;2022-08-03T21:11:28;6.50;6.50;4.00
14880;PMS7003;7533;51.278;12.588;2022-08-03T21:16:43;7.75;7.75;4.50
14880;PMS7003;7533;51.278;12.588;2022-08-03T21:21:47;8.80;7.20;6.00
14880;PMS7003;7533;51.278;12.588;2022-08-03T21:26:52;8.20;8.20;5.60
14880;PMS7003;7533;51.278;12.588;2022-08-03T21:31:57;7.50;7.00;6.00
14880;PMS7003;7533;51.278;12.588;2022-08-03T21:37:00;9.00;8.25;6.00
14880;PMS7003;7533;51.278;12.588;2022-08-03T21:42:04;7.75;7.75;5.50
14880;PMS7003;7533;51.278;12.588;2022-08-03T21:47:08;10.25;8.25;5.75
14880;PMS7003;7533;51.278;12.588;2022-08-03T21:52:13;9.00;9.00;6.00
14880;PMS7003;7533;51.278;12.588;2022-08-03T21:57:18;8.00;8.00;5.25
14880;PMS7003;7533;51.278;12.588;2022-08-03T22:02:26;8.00;7.50;5.00
14880;PMS7003;7533;51.278;12.588;2022-08-03T22:07:33;10.00;8.20;6.80
14880;PMS7003;7533;51.278;12.588;2022-08-03T22:12:37;9.67;8.33;6.00
14880;PMS7003;7533;51.278;12.588;2022-08-03T22:17:41;9.50;8.75;6.50
14880;PMS7003;7533;51.278;12.588;2022-08-03T22:22:59;9.75;7.75;5.25
14880;PMS7003;7533;51.278;12.588;2022-08-03T22:28:05;8.75;8.75;6.75
14880;PMS7003;7533;51.278;12.588;2022-08-03T22:33:10;9.80;7.60;6.40
14880;PMS7003;7533;51.278;12.588;2022-08-03T22:38:16;9.25;9.25;6.00
14880;PMS7003;7533;51.278;12.588;2022-08-03T22:43:20;9.25;8.00;6.25
14880;PMS7003;7533;51.278;12.588;2022-08-03T22:48:26;9.75;8.50;5.50
14880;PMS7003;7533;51.278;12.588;2022-08-03T22:53:32;8.00;7.75;6.50
14880;PMS7003;7533;51.278;12.588;2022-08-03T22:58:36;7.50;7.50;5.25
14880;PMS7003;7533;51.278;12.588;2022-08-03T23:03:41;8.00;8.00;5.40
14880;PMS7003;7533;51.278;12.588;2022-08-03T23:09:03;9.40;8.60;6.00
14880;PMS7003;7533;51.278;12.588;2022-08-03T23:14:08;7.75;7.75;6.00
14880;PMS7003;7533;51.278;12.588;2022-08-03T23:19:14;10.40;10.40;7.80
14880;PMS7003;7533;51.278;12.588;2022-08-03T23:24:26;11.20;10.40;7.20
14880;PMS7003;7533;51.278;12.588;2022-08-03T23:29:30;9.80;9.60;6.60
14880;PMS7003;7533;51.278;12.588;2022-08-03T23:34:38;12.80;11.80;9.00
14880;PMS7003;7533;51.278;12.588;2022-08-03T23:39:59;10.80;9.20;7.40
14880;PMS7003;7533;51.278;12.588;2022-08-03T23:45:04;10.60;9.60;7.60
14880;PMS7003;7533;51.278;12.588;2022-08-03T23:50:09;11.60;11.60;7.40
14880;PMS7003;7533;51.278;12.588;2022-08-03T23:55:15;10.60;10.60;6.80
